Aérodrome :
LOGIN :

S'inscrire | Disclaimer

   EN    FR    IT 

 










Légende :    VFR   VFR Marginal   IFR   IFR Intensif   IFR Très Intensif
Visi : 
Plafond : 
>= 8 km
>= 3000ft
5 à 8 km
1000 à 3000 ft
1500m à 5 km
500 à 1000 ft
800 à 1500m
200 à 500 ft
< 800m
< 200 ft
Symboles :   Orages  Brouillard  Fortes neiges  Fortes précipitations  Vent > 20 kt
SIGMETs :   Divers  Orages  Givrage  Turbulence  Onde Orograph.  Cendres Volcan.






- Altitude de l'aérodrome : 302 ft
- Code IATA : CGN


EDDK - Cologne Bonn

DERNIER METAR :
  • 180850Z 31005KT 280V340 CAVOK 08/03 Q1022 NOSIG

METARs EXPIRÉS :
  • 180820Z 28006KT 9999 FEW045 07/02 Q1022 NOSIG
  • 180750Z 30005KT 270V340 9999 FEW045 07/03 Q1022 NOSIG
  • 180720Z 29005KT 9999 -RA SCT045 07/02 Q1022 NOSIG
  • 180650Z 31005KT 9999 -RA BKN043 06/02 Q1022 NOSIG

TAF TAF EDDK
Valide du 18 à 06h jusqu'au 19 à 12h UTC


180500Z 1806/1912 VRB03KT 9999 BKN035
BECMG 1807/1810 34008KT
BECMG 1817/1820 33003KT
TEMPO 1903/1909 4000 BR BKN012
PROB30
TEMPO 1905/1907 2500 -RA BR BKN007



MET'MAP, la Météo Aéronautique d'un coup d'oeil ! - Copyright ORBIFLY Décembre 2007 - Disclaimer

ORBIFLY MET'MAP TEAM :

Programmation & Développement : Alexandra Zaïnal
Sur une idée originale de : Baudouin d'Aumeries
Assistance à la programmation : Marc-Olivier Méhu
Soutien technique & logistique : Manuel Goepfert

Contact : metmap@orbifly.com




SOURCES & CREDITS :

   NOAA